LGKO Información de aeropuertos

Información de pistas
Pista 14 Longitud 7841 ft Ancho 148 ft
Elevación 412 ft Umbral 0 ft Rumbo 148
Pista 32 Longitud 7841 ft Ancho 148 ft
Elevación 373 ft Umbral 0 ft Rumbo 328
Frecuencias
Tipo A/G Nombre IPPOKRATIS Frequencia 563.7 MHZ
Tipo APP Nombre APP Frequencia 119.95 MHZ
Tipo ATIS Nombre ATIS Frequencia 126.95 MHZ
Tipo TWR Nombre IPPOKRATIS Frequencia 121.05 MHZ
Radioayudas
Tipo VOR-DME Nombre Kos Frequencia 109000 KHZ
Tipo NDB Nombre Kos Frequencia 311 KHZ
Información meteorológica y NOTAM
ADDS - METARS form results

(1946 UTC 27 September 2021)
Data provider http://aviationweather.gov/metar/data/
 
METAR text: LGKO 271920Z 33010KT CAVOK 23/15 Q1011
Conditions at: LGKO (KOS AIRPORT , GR) observed 1920 UTC 27 September 2021
Temperature: 23.0°C (73°F)
Dewpoint: 15.0°C (59°F) [RH = 61%]
Pressure (altimeter): 29.85 inches Hg (1011.0 mb)
Winds: from the NNW (330 degrees) at 12 MPH (10 knots; 5.1 m/s)
Visibility: 6 or more miles (10+ km)
Ceiling: ceiling and visibility are OK
Clouds: unknown
Weather: no significant weather observed at this time

METAR text: LGKO 271850Z 33009KT CAVOK 23/15 Q1011
Conditions at: LGKO (KOS AIRPORT , GR) observed 1850 UTC 27 September 2021
Temperature: 23.0°C (73°F)
Dewpoint: 15.0°C (59°F) [RH = 61%]
Pressure (altimeter): 29.85 inches Hg (1011.0 mb)
Winds: from the NNW (330 degrees) at 10 MPH (9 knots; 4.6 m/s)
Visibility: 6 or more miles (10+ km)
Ceiling: ceiling and visibility are OK
Clouds: unknown
Weather: no significant weather observed at this time

Forecast for: LGKO (KOS AIRPORT , GR)
Text: TAF LGKO 271700Z 2718/2818 33010KT 9999 FEW020
Forecast period: 1800 UTC 27 September 2021 to 1800 UTC 28 September 2021
Forecast type: FROM: standard forecast or significant change
Winds: from the NNW (330 degrees) at 12 MPH (10 knots; 5.1 m/s)
Visibility: 6 or more miles (10+ km)
Ceiling: at least 12,000 feet AGL
Clouds: few clouds at 2000 feet AGL
Weather: no significant weather forecast for this period
Text: TEMPO 2718/2720 33015G25KT
Forecast period: 1800 to 2000 UTC 27 September 2021
Forecast type: TEMPORARY: The following changes expected for less than half the time period
Winds: from the NNW (330 degrees) at 17 MPH (15 knots; 7.7 m/s)
gusting to 29 MPH (25 knots; 12.9 m/s)
Visibility: missing
Ceiling: unknown
Clouds: missing
Weather: no significant weather forecast for this period
Text: TEMPO 2811/2818 33015G25KT
Forecast period: 1100 to 1800 UTC 28 September 2021
Forecast type: TEMPORARY: The following changes expected for less than half the time period
Winds: from the NNW (330 degrees) at 17 MPH (15 knots; 7.7 m/s)
gusting to 29 MPH (25 knots; 12.9 m/s)
Visibility: missing
Ceiling: unknown
Clouds: missing
Weather: no significant weather forecast for this period